sensor_id;sensor_type;location;lat;lon;timestamp;P1;durP1;ratioP1;P2;durP2;ratioP2
23506;SDS011;11930;53.076;18.250;2022-10-16T00:01:20;56.27;;;33.20;;
23506;SDS011;11930;53.076;18.250;2022-10-16T00:03:49;54.30;;;32.63;;
23506;SDS011;11930;53.076;18.250;2022-10-16T00:06:16;52.37;;;32.47;;
23506;SDS011;11930;53.076;18.250;2022-10-16T00:08:43;53.53;;;32.97;;
23506;SDS011;11930;53.076;18.250;2022-10-16T00:11:11;53.10;;;32.53;;
23506;SDS011;11930;53.076;18.250;2022-10-16T00:13:40;55.37;;;32.50;;
23506;SDS011;11930;53.076;18.250;2022-10-16T00:16:09;52.67;;;32.33;;
23506;SDS011;11930;53.076;18.250;2022-10-16T00:18:37;53.50;;;33.33;;
23506;SDS011;11930;53.076;18.250;2022-10-16T00:21:10;50.37;;;32.47;;
23506;SDS011;11930;53.076;18.250;2022-10-16T00:23:38;52.13;;;31.87;;
23506;SDS011;11930;53.076;18.250;2022-10-16T00:26:06;53.23;;;32.27;;
23506;SDS011;11930;53.076;18.250;2022-10-16T00:28:35;58.57;;;33.00;;
23506;SDS011;11930;53.076;18.250;2022-10-16T00:31:08;55.67;;;32.80;;
23506;SDS011;11930;53.076;18.250;2022-10-16T00:33:36;54.63;;;33.37;;
23506;SDS011;11930;53.076;18.250;2022-10-16T00:36:03;56.30;;;32.57;;
23506;SDS011;11930;53.076;18.250;2022-10-16T00:38:31;59.67;;;33.67;;
23506;SDS011;11930;53.076;18.250;2022-10-16T00:40:57;56.30;;;33.93;;
23506;SDS011;11930;53.076;18.250;2022-10-16T00:51:46;61.53;;;35.10;;
23506;SDS011;11930;53.076;18.250;2022-10-16T00:54:19;54.10;;;33.70;;
23506;SDS011;11930;53.076;18.250;2022-10-16T00:56:48;54.53;;;33.87;;
23506;SDS011;11930;53.076;18.250;2022-10-16T00:59:16;58.73;;;34.37;;
23506;SDS011;11930;53.076;18.250;2022-10-16T01:01:45;57.67;;;33.27;;
23506;SDS011;11930;53.076;18.250;2022-10-16T01:04:11;56.60;;;33.23;;
23506;SDS011;11930;53.076;18.250;2022-10-16T01:06:59;61.27;;;34.77;;
23506;SDS011;11930;53.076;18.250;2022-10-16T01:10:07;56.50;;;34.10;;
23506;SDS011;11930;53.076;18.250;2022-10-16T01:12:43;54.33;;;32.87;;
23506;SDS011;11930;53.076;18.250;2022-10-16T01:18:16;54.50;;;33.03;;
23506;SDS011;11930;53.076;18.250;2022-10-16T01:29:25;57.23;;;32.43;;
23506;SDS011;11930;53.076;18.250;2022-10-16T01:31:59;56.73;;;33.23;;
23506;SDS011;11930;53.076;18.250;2022-10-16T01:34:32;53.53;;;31.47;;
23506;SDS011;11930;53.076;18.250;2022-10-16T01:37:15;56.30;;;32.87;;
23506;SDS011;11930;53.076;18.250;2022-10-16T01:39:46;53.63;;;31.87;;
23506;SDS011;11930;53.076;18.250;2022-10-16T01:42:25;51.50;;;31.43;;
23506;SDS011;11930;53.076;18.250;2022-10-16T01:44:59;52.37;;;32.10;;
23506;SDS011;11930;53.076;18.250;2022-10-16T01:47:27;55.03;;;31.53;;
23506;SDS011;11930;53.076;18.250;2022-10-16T01:49:55;51.77;;;31.53;;
23506;SDS011;11930;53.076;18.250;2022-10-16T01:52:25;48.67;;;30.07;;
23506;SDS011;11930;53.076;18.250;2022-10-16T01:54:54;49.30;;;29.97;;
23506;SDS011;11930;53.076;18.250;2022-10-16T01:57:22;53.27;;;29.97;;
23506;SDS011;11930;53.076;18.250;2022-10-16T01:59:52;52.43;;;31.10;;
23506;SDS011;11930;53.076;18.250;2022-10-16T02:02:23;46.00;;;30.43;;
23506;SDS011;11930;53.076;18.250;2022-10-16T02:07:42;52.90;;;30.57;;
23506;SDS011;11930;53.076;18.250;2022-10-16T02:10:09;44.97;;;28.57;;
23506;SDS011;11930;53.076;18.250;2022-10-16T02:12:36;49.43;;;29.33;;
23506;SDS011;11930;53.076;18.250;2022-10-16T02:15:06;50.03;;;28.87;;
23506;SDS011;11930;53.076;18.250;2022-10-16T02:17:32;48.90;;;29.73;;
23506;SDS011;11930;53.076;18.250;2022-10-16T02:19:58;49.60;;;29.50;;
23506;SDS011;11930;53.076;18.250;2022-10-16T02:22:30;49.83;;;29.63;;
23506;SDS011;11930;53.076;18.250;2022-10-16T02:25:03;50.10;;;29.70;;
23506;SDS011;11930;53.076;18.250;2022-10-16T02:27:53;48.47;;;28.87;;
23506;SDS011;11930;53.076;18.250;2022-10-16T02:32:55;51.03;;;30.37;;
23506;SDS011;11930;53.076;18.250;2022-10-16T02:35:23;50.43;;;30.57;;
23506;SDS011;11930;53.076;18.250;2022-10-16T02:37:50;52.37;;;31.20;;
23506;SDS011;11930;53.076;18.250;2022-10-16T02:40:17;55.90;;;31.23;;
23506;SDS011;11930;53.076;18.250;2022-10-16T02:42:49;57.53;;;32.83;;
23506;SDS011;11930;53.076;18.250;2022-10-16T02:45:17;53.93;;;31.33;;
23506;SDS011;11930;53.076;18.250;2022-10-16T02:47:43;56.10;;;32.20;;
23506;SDS011;11930;53.076;18.250;2022-10-16T02:50:09;54.63;;;32.57;;
23506;SDS011;11930;53.076;18.250;2022-10-16T02:52:35;60.57;;;31.90;;
23506;SDS011;11930;53.076;18.250;2022-10-16T02:55:01;55.77;;;31.83;;
23506;SDS011;11930;53.076;18.250;2022-10-16T02:57:28;52.23;;;31.33;;
23506;SDS011;11930;53.076;18.250;2022-10-16T02:59:54;54.20;;;31.73;;
23506;SDS011;11930;53.076;18.250;2022-10-16T03:02:20;51.10;;;31.70;;
23506;SDS011;11930;53.076;18.250;2022-10-16T03:04:46;54.17;;;31.70;;
23506;SDS011;11930;53.076;18.250;2022-10-16T03:07:12;52.70;;;31.80;;
23506;SDS011;11930;53.076;18.250;2022-10-16T03:09:38;52.00;;;30.80;;
23506;SDS011;11930;53.076;18.250;2022-10-16T03:12:04;52.27;;;30.97;;
23506;SDS011;11930;53.076;18.250;2022-10-16T03:14:30;50.90;;;30.17;;
23506;SDS011;11930;53.076;18.250;2022-10-16T03:16:57;51.10;;;30.10;;
23506;SDS011;11930;53.076;18.250;2022-10-16T03:19:23;49.83;;;30.60;;
23506;SDS011;11930;53.076;18.250;2022-10-16T03:21:49;50.17;;;29.80;;
23506;SDS011;11930;53.076;18.250;2022-10-16T03:24:15;47.57;;;28.97;;
23506;SDS011;11930;53.076;18.250;2022-10-16T03:26:41;50.47;;;29.77;;
23506;SDS011;11930;53.076;18.250;2022-10-16T03:29:07;48.50;;;29.97;;
23506;SDS011;11930;53.076;18.250;2022-10-16T03:31:33;46.13;;;28.43;;
23506;SDS011;11930;53.076;18.250;2022-10-16T03:33:59;46.83;;;28.83;;
23506;SDS011;11930;53.076;18.250;2022-10-16T03:36:25;45.33;;;28.43;;
23506;SDS011;11930;53.076;18.250;2022-10-16T03:38:51;50.03;;;30.07;;
23506;SDS011;11930;53.076;18.250;2022-10-16T03:41:17;49.43;;;29.80;;
23506;SDS011;11930;53.076;18.250;2022-10-16T03:43:43;44.77;;;27.77;;
23506;SDS011;11930;53.076;18.250;2022-10-16T03:46:09;47.47;;;29.10;;
23506;SDS011;11930;53.076;18.250;2022-10-16T03:48:35;48.57;;;28.87;;
23506;SDS011;11930;53.076;18.250;2022-10-16T03:51:01;45.37;;;28.47;;
23506;SDS011;11930;53.076;18.250;2022-10-16T03:53:28;47.00;;;28.07;;
23506;SDS011;11930;53.076;18.250;2022-10-16T03:55:54;48.13;;;27.70;;
23506;SDS011;11930;53.076;18.250;2022-10-16T03:58:20;47.00;;;28.27;;
23506;SDS011;11930;53.076;18.250;2022-10-16T04:00:46;44.97;;;27.37;;
23506;SDS011;11930;53.076;18.250;2022-10-16T04:03:15;47.83;;;27.67;;
23506;SDS011;11930;53.076;18.250;2022-10-16T04:05:42;47.03;;;27.57;;
23506;SDS011;11930;53.076;18.250;2022-10-16T04:08:08;45.97;;;28.27;;
23506;SDS011;11930;53.076;18.250;2022-10-16T04:10:35;42.17;;;26.87;;
23506;SDS011;11930;53.076;18.250;2022-10-16T04:13:01;42.90;;;26.97;;
23506;SDS011;11930;53.076;18.250;2022-10-16T04:15:27;43.83;;;27.43;;
23506;SDS011;11930;53.076;18.250;2022-10-16T04:17:53;44.43;;;27.53;;
23506;SDS011;11930;53.076;18.250;2022-10-16T04:20:19;44.00;;;27.63;;
23506;SDS011;11930;53.076;18.250;2022-10-16T04:22:45;42.50;;;27.13;;
23506;SDS011;11930;53.076;18.250;2022-10-16T04:25:11;47.13;;;26.97;;
23506;SDS011;11930;53.076;18.250;2022-10-16T04:27:38;43.03;;;27.60;;
23506;SDS011;11930;53.076;18.250;2022-10-16T04:30:04;43.27;;;27.03;;
23506;SDS011;11930;53.076;18.250;2022-10-16T04:32:31;40.53;;;25.37;;
23506;SDS011;11930;53.076;18.250;2022-10-16T04:34:57;42.80;;;26.90;;
23506;SDS011;11930;53.076;18.250;2022-10-16T04:37:26;41.50;;;26.10;;
23506;SDS011;11930;53.076;18.250;2022-10-16T04:39:53;41.87;;;25.60;;
23506;SDS011;11930;53.076;18.250;2022-10-16T04:42:25;42.90;;;26.30;;
23506;SDS011;11930;53.076;18.250;2022-10-16T04:44:51;42.13;;;25.77;;
23506;SDS011;11930;53.076;18.250;2022-10-16T04:47:17;41.67;;;26.10;;
23506;SDS011;11930;53.076;18.250;2022-10-16T04:49:43;38.20;;;24.80;;
23506;SDS011;11930;53.076;18.250;2022-10-16T04:52:09;37.53;;;24.83;;
23506;SDS011;11930;53.076;18.250;2022-10-16T04:54:35;39.10;;;24.33;;
23506;SDS011;11930;53.076;18.250;2022-10-16T04:57:04;42.60;;;24.00;;
23506;SDS011;11930;53.076;18.250;2022-10-16T04:59:33;39.77;;;25.20;;
23506;SDS011;11930;53.076;18.250;2022-10-16T05:01:59;38.80;;;25.37;;
23506;SDS011;11930;53.076;18.250;2022-10-16T05:04:25;36.60;;;23.37;;
23506;SDS011;11930;53.076;18.250;2022-10-16T05:06:51;40.47;;;23.77;;
23506;SDS011;11930;53.076;18.250;2022-10-16T05:09:17;37.00;;;25.20;;
23506;SDS011;11930;53.076;18.250;2022-10-16T05:11:43;40.27;;;24.87;;
23506;SDS011;11930;53.076;18.250;2022-10-16T05:14:17;38.97;;;25.40;;
23506;SDS011;11930;53.076;18.250;2022-10-16T05:17:17;37.87;;;24.17;;
23506;SDS011;11930;53.076;18.250;2022-10-16T05:19:43;36.50;;;23.30;;
23506;SDS011;11930;53.076;18.250;2022-10-16T05:22:10;34.40;;;23.13;;
23506;SDS011;11930;53.076;18.250;2022-10-16T05:24:36;36.13;;;23.43;;
23506;SDS011;11930;53.076;18.250;2022-10-16T05:27:02;39.23;;;23.77;;
23506;SDS011;11930;53.076;18.250;2022-10-16T05:29:29;37.30;;;23.83;;
23506;SDS011;11930;53.076;18.250;2022-10-16T05:31:55;37.67;;;24.03;;
23506;SDS011;11930;53.076;18.250;2022-10-16T05:34:22;38.00;;;24.03;;
23506;SDS011;11930;53.076;18.250;2022-10-16T05:36:48;39.33;;;25.80;;
23506;SDS011;11930;53.076;18.250;2022-10-16T05:39:14;38.40;;;23.67;;
23506;SDS011;11930;53.076;18.250;2022-10-16T05:41:41;38.83;;;25.07;;
23506;SDS011;11930;53.076;18.250;2022-10-16T05:44:07;39.03;;;25.47;;
23506;SDS011;11930;53.076;18.250;2022-10-16T05:46:33;36.93;;;24.33;;
23506;SDS011;11930;53.076;18.250;2022-10-16T05:48:59;37.70;;;24.97;;
23506;SDS011;11930;53.076;18.250;2022-10-16T05:51:25;41.60;;;26.00;;
23506;SDS011;11930;53.076;18.250;2022-10-16T05:53:54;37.60;;;24.33;;
23506;SDS011;11930;53.076;18.250;2022-10-16T05:56:23;38.60;;;24.90;;
23506;SDS011;11930;53.076;18.250;2022-10-16T05:58:52;43.07;;;25.90;;
23506;SDS011;11930;53.076;18.250;2022-10-16T06:01:18;39.97;;;25.33;;
23506;SDS011;11930;53.076;18.250;2022-10-16T06:03:46;40.03;;;25.00;;
23506;SDS011;11930;53.076;18.250;2022-10-16T06:06:15;39.13;;;24.03;;
23506;SDS011;11930;53.076;18.250;2022-10-16T06:08:44;35.70;;;23.73;;
23506;SDS011;11930;53.076;18.250;2022-10-16T06:11:11;35.57;;;23.63;;
23506;SDS011;11930;53.076;18.250;2022-10-16T06:13:39;36.20;;;23.17;;
23506;SDS011;11930;53.076;18.250;2022-10-16T06:16:08;31.57;;;22.37;;
23506;SDS011;11930;53.076;18.250;2022-10-16T06:18:36;37.33;;;23.63;;
23506;SDS011;11930;53.076;18.250;2022-10-16T06:21:12;31.60;;;20.87;;
23506;SDS011;11930;53.076;18.250;2022-10-16T06:23:42;27.15;;;19.10;;
23506;SDS011;11930;53.076;18.250;2022-10-16T06:26:11;27.27;;;18.70;;
23506;SDS011;11930;53.076;18.250;2022-10-16T06:28:39;24.70;;;17.50;;
23506;SDS011;11930;53.076;18.250;2022-10-16T06:31:06;24.13;;;16.60;;
23506;SDS011;11930;53.076;18.250;2022-10-16T06:33:34;23.05;;;16.88;;
23506;SDS011;11930;53.076;18.250;2022-10-16T06:36:05;24.90;;;17.25;;
23506;SDS011;11930;53.076;18.250;2022-10-16T06:38:36;25.13;;;17.90;;
23506;SDS011;11930;53.076;18.250;2022-10-16T06:41:02;25.73;;;17.63;;
23506;SDS011;11930;53.076;18.250;2022-10-16T06:43:30;26.80;;;17.50;;
23506;SDS011;11930;53.076;18.250;2022-10-16T06:45:57;26.53;;;17.83;;
23506;SDS011;11930;53.076;18.250;2022-10-16T06:48:25;27.43;;;18.47;;
23506;SDS011;11930;53.076;18.250;2022-10-16T06:53:33;25.10;;;17.97;;
23506;SDS011;11930;53.076;18.250;2022-10-16T06:56:11;27.23;;;18.00;;
23506;SDS011;11930;53.076;18.250;2022-10-16T06:58:41;25.43;;;17.53;;
23506;SDS011;11930;53.076;18.250;2022-10-16T07:01:18;25.53;;;18.20;;
23506;SDS011;11930;53.076;18.250;2022-10-16T07:03:55;25.20;;;18.37;;
23506;SDS011;11930;53.076;18.250;2022-10-16T07:06:30;26.73;;;17.67;;
23506;SDS011;11930;53.076;18.250;2022-10-16T07:09:00;26.33;;;17.57;;
23506;SDS011;11930;53.076;18.250;2022-10-16T07:11:34;23.20;;;16.33;;
23506;SDS011;11930;53.076;18.250;2022-10-16T07:16:59;23.77;;;15.37;;
23506;SDS011;11930;53.076;18.250;2022-10-16T07:19:25;23.50;;;15.73;;
23506;SDS011;11930;53.076;18.250;2022-10-16T07:21:54;22.13;;;14.43;;
23506;SDS011;11930;53.076;18.250;2022-10-16T07:24:32;19.63;;;13.98;;
23506;SDS011;11930;53.076;18.250;2022-10-16T07:27:11;18.38;;;13.70;;
23506;SDS011;11930;53.076;18.250;2022-10-16T07:29:38;19.48;;;13.80;;
23506;SDS011;11930;53.076;18.250;2022-10-16T07:32:04;18.98;;;12.90;;
23506;SDS011;11930;53.076;18.250;2022-10-16T07:34:48;18.15;;;12.50;;
23506;SDS011;11930;53.076;18.250;2022-10-16T07:37:14;15.38;;;11.45;;
23506;SDS011;11930;53.076;18.250;2022-10-16T07:39:40;22.08;;;14.23;;
23506;SDS011;11930;53.076;18.250;2022-10-16T07:42:06;16.70;;;11.95;;
23506;SDS011;11930;53.076;18.250;2022-10-16T07:44:34;12.52;;;9.55;;
23506;SDS011;11930;53.076;18.250;2022-10-16T07:47:00;12.45;;;9.55;;
23506;SDS011;11930;53.076;18.250;2022-10-16T07:49:35;11.93;;;9.23;;
23506;SDS011;11930;53.076;18.250;2022-10-16T07:52:01;12.48;;;9.18;;
23506;SDS011;11930;53.076;18.250;2022-10-16T07:54:28;13.02;;;9.77;;
23506;SDS011;11930;53.076;18.250;2022-10-16T07:56:54;10.32;;;9.23;;
23506;SDS011;11930;53.076;18.250;2022-10-16T07:59:20;13.65;;;9.38;;
23506;SDS011;11930;53.076;18.250;2022-10-16T08:01:46;13.90;;;9.80;;
23506;SDS011;11930;53.076;18.250;2022-10-16T08:04:14;12.07;;;9.20;;
23506;SDS011;11930;53.076;18.250;2022-10-16T08:06:40;15.05;;;10.05;;
23506;SDS011;11930;53.076;18.250;2022-10-16T08:09:07;12.60;;;9.98;;
23506;SDS011;11930;53.076;18.250;2022-10-16T08:11:36;14.18;;;10.48;;
23506;SDS011;11930;53.076;18.250;2022-10-16T08:14:15;14.07;;;10.02;;
23506;SDS011;11930;53.076;18.250;2022-10-16T08:16:41;14.15;;;10.80;;
23506;SDS011;11930;53.076;18.250;2022-10-16T08:19:07;14.57;;;10.23;;
23506;SDS011;11930;53.076;18.250;2022-10-16T08:21:36;13.70;;;10.43;;
23506;SDS011;11930;53.076;18.250;2022-10-16T08:24:02;13.10;;;10.30;;
23506;SDS011;11930;53.076;18.250;2022-10-16T08:26:29;14.02;;;9.93;;
23506;SDS011;11930;53.076;18.250;2022-10-16T08:28:58;11.23;;;9.50;;
23506;SDS011;11930;53.076;18.250;2022-10-16T08:31:27;12.25;;;9.07;;
23506;SDS011;11930;53.076;18.250;2022-10-16T08:33:53;13.60;;;8.82;;
23506;SDS011;11930;53.076;18.250;2022-10-16T08:36:19;10.75;;;8.50;;
23506;SDS011;11930;53.076;18.250;2022-10-16T08:38:54;10.93;;;8.43;;
23506;SDS011;11930;53.076;18.250;2022-10-16T08:41:35;9.90;;;8.15;;
23506;SDS011;11930;53.076;18.250;2022-10-16T08:46:58;9.95;;;7.97;;
23506;SDS011;11930;53.076;18.250;2022-10-16T08:49:33;9.23;;;7.72;;
23506;SDS011;11930;53.076;18.250;2022-10-16T08:52:00;8.82;;;7.68;;
23506;SDS011;11930;53.076;18.250;2022-10-16T08:57:21;9.77;;;7.68;;
23506;SDS011;11930;53.076;18.250;2022-10-16T08:59:49;9.60;;;8.20;;
23506;SDS011;11930;53.076;18.250;2022-10-16T09:07:35;9.73;;;7.45;;
23506;SDS011;11930;53.076;18.250;2022-10-16T09:10:26;12.55;;;7.90;;
23506;SDS011;11930;53.076;18.250;2022-10-16T09:16:17;10.30;;;7.60;;
23506;SDS011;11930;53.076;18.250;2022-10-16T09:21:59;10.40;;;8.18;;
23506;SDS011;11930;53.076;18.250;2022-10-16T09:24:34;11.48;;;7.78;;
23506;SDS011;11930;53.076;18.250;2022-10-16T09:27:00;10.40;;;7.45;;
23506;SDS011;11930;53.076;18.250;2022-10-16T09:29:26;10.63;;;7.93;;
23506;SDS011;11930;53.076;18.250;2022-10-16T09:31:52;9.18;;;7.85;;
23506;SDS011;11930;53.076;18.250;2022-10-16T09:36:59;11.13;;;8.25;;
23506;SDS011;11930;53.076;18.250;2022-10-16T09:39:28;10.05;;;7.32;;
23506;SDS011;11930;53.076;18.250;2022-10-16T09:41:54;11.48;;;8.30;;
23506;SDS011;11930;53.076;18.250;2022-10-16T09:44:28;10.93;;;8.05;;
23506;SDS011;11930;53.076;18.250;2022-10-16T09:49:37;11.90;;;7.30;;
23506;SDS011;11930;53.076;18.250;2022-10-16T09:52:11;11.27;;;7.93;;
23506;SDS011;11930;53.076;18.250;2022-10-16T09:54:48;10.05;;;8.40;;
23506;SDS011;11930;53.076;18.250;2022-10-16T09:57:25;10.65;;;8.38;;
23506;SDS011;11930;53.076;18.250;2022-10-16T09:59:52;10.55;;;7.25;;
23506;SDS011;11930;53.076;18.250;2022-10-16T10:04:59;13.10;;;8.50;;
23506;SDS011;11930;53.076;18.250;2022-10-16T10:09:53;11.52;;;9.95;;
23506;SDS011;11930;53.076;18.250;2022-10-16T10:12:23;12.00;;;8.13;;
23506;SDS011;11930;53.076;18.250;2022-10-16T10:14:56;9.95;;;6.95;;
23506;SDS011;11930;53.076;18.250;2022-10-16T10:17:29;14.88;;;7.45;;
23506;SDS011;11930;53.076;18.250;2022-10-16T10:19:59;15.93;;;10.75;;
23506;SDS011;11930;53.076;18.250;2022-10-16T10:22:31;12.77;;;7.90;;
23506;SDS011;11930;53.076;18.250;2022-10-16T10:41:00;7.30;;;5.13;;
23506;SDS011;11930;53.076;18.250;2022-10-16T10:54:34;8.13;;;5.43;;
23506;SDS011;11930;53.076;18.250;2022-10-16T11:02:41;8.80;;;5.40;;
23506;SDS011;11930;53.076;18.250;2022-10-16T11:08:13;8.15;;;5.70;;
23506;SDS011;11930;53.076;18.250;2022-10-16T11:16:12;10.85;;;6.90;;
23506;SDS011;11930;53.076;18.250;2022-10-16T11:21:12;9.55;;;6.22;;
23506;SDS011;11930;53.076;18.250;2022-10-16T11:26:17;7.40;;;5.47;;
23506;SDS011;11930;53.076;18.250;2022-10-16T11:28:49;11.18;;;6.13;;
23506;SDS011;11930;53.076;18.250;2022-10-16T11:31:38;8.70;;;5.90;;
23506;SDS011;11930;53.076;18.250;2022-10-16T11:34:25;12.90;;;6.70;;
23506;SDS011;11930;53.076;18.250;2022-10-16T11:37:11;8.68;;;5.75;;
23506;SDS011;11930;53.076;18.250;2022-10-16T11:39:42;8.32;;;5.55;;
23506;SDS011;11930;53.076;18.250;2022-10-16T11:47:51;6.55;;;5.47;;
23506;SDS011;11930;53.076;18.250;2022-10-16T11:50:48;8.68;;;5.68;;
23506;SDS011;11930;53.076;18.250;2022-10-16T11:56:01;7.63;;;5.60;;
23506;SDS011;11930;53.076;18.250;2022-10-16T11:58:38;8.25;;;5.68;;
23506;SDS011;11930;53.076;18.250;2022-10-16T12:06:27;9.93;;;6.28;;
23506;SDS011;11930;53.076;18.250;2022-10-16T12:09:09;14.63;;;8.40;;
23506;SDS011;11930;53.076;18.250;2022-10-16T12:11:52;10.55;;;7.15;;
23506;SDS011;11930;53.076;18.250;2022-10-16T12:14:22;8.38;;;7.10;;
23506;SDS011;11930;53.076;18.250;2022-10-16T12:17:42;13.45;;;9.60;;
23506;SDS011;11930;53.076;18.250;2022-10-16T12:20:12;13.13;;;7.85;;
23506;SDS011;11930;53.076;18.250;2022-10-16T12:22:50;10.48;;;7.07;;
23506;SDS011;11930;53.076;18.250;2022-10-16T12:28:22;11.43;;;7.70;;
23506;SDS011;11930;53.076;18.250;2022-10-16T12:30:41;8.98;;;6.68;;
23506;SDS011;11930;53.076;18.250;2022-10-16T12:33:19;12.80;;;7.10;;
23506;SDS011;11930;53.076;18.250;2022-10-16T12:35:51;11.60;;;6.68;;
23506;SDS011;11930;53.076;18.250;2022-10-16T12:49:05;13.88;;;7.57;;
23506;SDS011;11930;53.076;18.250;2022-10-16T12:51:45;20.23;;;9.65;;
23506;SDS011;11930;53.076;18.250;2022-10-16T12:54:15;15.27;;;7.82;;
23506;SDS011;11930;53.076;18.250;2022-10-16T13:05:14;11.98;;;6.63;;
23506;SDS011;11930;53.076;18.250;2022-10-16T13:07:53;9.32;;;6.75;;
23506;SDS011;11930;53.076;18.250;2022-10-16T13:10:44;11.48;;;7.25;;
23506;SDS011;11930;53.076;18.250;2022-10-16T13:18:59;7.18;;;6.30;;
23506;SDS011;11930;53.076;18.250;2022-10-16T13:27:13;7.45;;;5.93;;
23506;SDS011;11930;53.076;18.250;2022-10-16T13:29:53;9.10;;;6.13;;
23506;SDS011;11930;53.076;18.250;2022-10-16T13:32:36;8.07;;;6.15;;
23506;SDS011;11930;53.076;18.250;2022-10-16T13:35:02;8.65;;;6.32;;
23506;SDS011;11930;53.076;18.250;2022-10-16T13:37:29;13.93;;;7.72;;
23506;SDS011;11930;53.076;18.250;2022-10-16T13:40:04;6.70;;;5.82;;
23506;SDS011;11930;53.076;18.250;2022-10-16T13:42:44;8.50;;;6.60;;
23506;SDS011;11930;53.076;18.250;2022-10-16T13:45:17;10.85;;;6.50;;
23506;SDS011;11930;53.076;18.250;2022-10-16T13:47:44;7.53;;;6.00;;
23506;SDS011;11930;53.076;18.250;2022-10-16T13:50:12;8.98;;;6.13;;
23506;SDS011;11930;53.076;18.250;2022-10-16T13:53:12;8.75;;;6.72;;
23506;SDS011;11930;53.076;18.250;2022-10-16T13:55:40;7.75;;;6.20;;
23506;SDS011;11930;53.076;18.250;2022-10-16T13:58:12;16.30;;;10.75;;
23506;SDS011;11930;53.076;18.250;2022-10-16T14:00:54;16.55;;;8.60;;
23506;SDS011;11930;53.076;18.250;2022-10-16T14:03:23;11.32;;;7.03;;
23506;SDS011;11930;53.076;18.250;2022-10-16T14:05:54;8.82;;;6.70;;
23506;SDS011;11930;53.076;18.250;2022-10-16T14:08:22;10.82;;;6.80;;
23506;SDS011;11930;53.076;18.250;2022-10-16T14:10:50;9.20;;;7.07;;
23506;SDS011;11930;53.076;18.250;2022-10-16T14:13:42;13.65;;;7.30;;
23506;SDS011;11930;53.076;18.250;2022-10-16T14:16:11;8.00;;;6.53;;
23506;SDS011;11930;53.076;18.250;2022-10-16T14:18:45;9.07;;;6.10;;
23506;SDS011;11930;53.076;18.250;2022-10-16T14:21:14;8.30;;;6.05;;
23506;SDS011;11930;53.076;18.250;2022-10-16T14:23:42;12.38;;;8.43;;
23506;SDS011;11930;53.076;18.250;2022-10-16T14:28:35;12.02;;;8.50;;
23506;SDS011;11930;53.076;18.250;2022-10-16T14:33:52;13.50;;;8.77;;
23506;SDS011;11930;53.076;18.250;2022-10-16T14:36:25;10.27;;;8.40;;
23506;SDS011;11930;53.076;18.250;2022-10-16T14:39:05;9.98;;;7.18;;
23506;SDS011;11930;53.076;18.250;2022-10-16T14:41:47;7.72;;;6.40;;
23506;SDS011;11930;53.076;18.250;2022-10-16T14:44:14;15.65;;;11.10;;
23506;SDS011;11930;53.076;18.250;2022-10-16T14:46:43;8.05;;;7.15;;
23506;SDS011;11930;53.076;18.250;2022-10-16T14:51:40;10.57;;;7.70;;
23506;SDS011;11930;53.076;18.250;2022-10-16T14:54:10;19.83;;;17.67;;
23506;SDS011;11930;53.076;18.250;2022-10-16T15:04:52;9.43;;;8.10;;
23506;SDS011;11930;53.076;18.250;2022-10-16T15:07:19;10.45;;;8.10;;
23506;SDS011;11930;53.076;18.250;2022-10-16T15:09:44;9.65;;;6.95;;
23506;SDS011;11930;53.076;18.250;2022-10-16T15:12:11;15.43;;;8.20;;
23506;SDS011;11930;53.076;18.250;2022-10-16T15:14:37;10.45;;;9.00;;
23506;SDS011;11930;53.076;18.250;2022-10-16T15:17:03;11.05;;;8.65;;
23506;SDS011;11930;53.076;18.250;2022-10-16T15:19:30;14.88;;;11.90;;
23506;SDS011;11930;53.076;18.250;2022-10-16T15:21:56;15.80;;;12.77;;
23506;SDS011;11930;53.076;18.250;2022-10-16T15:24:22;16.98;;;12.90;;
23506;SDS011;11930;53.076;18.250;2022-10-16T15:26:49;14.70;;;10.75;;
23506;SDS011;11930;53.076;18.250;2022-10-16T15:29:15;14.18;;;10.50;;
23506;SDS011;11930;53.076;18.250;2022-10-16T15:31:41;17.08;;;10.73;;
23506;SDS011;11930;53.076;18.250;2022-10-16T15:34:12;12.95;;;9.80;;
23506;SDS011;11930;53.076;18.250;2022-10-16T15:36:39;14.38;;;9.60;;
23506;SDS011;11930;53.076;18.250;2022-10-16T15:39:08;14.70;;;10.90;;
23506;SDS011;11930;53.076;18.250;2022-10-16T15:41:45;15.73;;;9.80;;
23506;SDS011;11930;53.076;18.250;2022-10-16T15:44:19;14.48;;;10.07;;
23506;SDS011;11930;53.076;18.250;2022-10-16T15:46:46;13.05;;;9.98;;
23506;SDS011;11930;53.076;18.250;2022-10-16T15:49:12;13.48;;;9.88;;
23506;SDS011;11930;53.076;18.250;2022-10-16T15:51:39;13.85;;;10.38;;
23506;SDS011;11930;53.076;18.250;2022-10-16T15:54:07;13.30;;;9.40;;
23506;SDS011;11930;53.076;18.250;2022-10-16T15:56:34;12.40;;;9.65;;
23506;SDS011;11930;53.076;18.250;2022-10-16T15:59:02;18.48;;;10.07;;
23506;SDS011;11930;53.076;18.250;2022-10-16T16:01:32;15.13;;;10.98;;
23506;SDS011;11930;53.076;18.250;2022-10-16T16:04:00;12.60;;;10.27;;
23506;SDS011;11930;53.076;18.250;2022-10-16T16:06:26;14.68;;;10.52;;
23506;SDS011;11930;53.076;18.250;2022-10-16T16:08:52;16.05;;;10.13;;
23506;SDS011;11930;53.076;18.250;2022-10-16T16:11:19;13.18;;;11.00;;
23506;SDS011;11930;53.076;18.250;2022-10-16T16:13:47;13.65;;;11.13;;
23506;SDS011;11930;53.076;18.250;2022-10-16T16:16:14;14.77;;;12.52;;
23506;SDS011;11930;53.076;18.250;2022-10-16T16:18:42;15.60;;;11.68;;
23506;SDS011;11930;53.076;18.250;2022-10-16T16:21:09;12.38;;;10.35;;
23506;SDS011;11930;53.076;18.250;2022-10-16T16:23:37;12.68;;;10.40;;
23506;SDS011;11930;53.076;18.250;2022-10-16T16:26:04;14.32;;;10.95;;
23506;SDS011;11930;53.076;18.250;2022-10-16T16:28:39;13.68;;;11.00;;
23506;SDS011;11930;53.076;18.250;2022-10-16T16:31:06;16.17;;;11.40;;
23506;SDS011;11930;53.076;18.250;2022-10-16T16:33:33;15.32;;;11.63;;
23506;SDS011;11930;53.076;18.250;2022-10-16T16:36:00;26.55;;;22.73;;
23506;SDS011;11930;53.076;18.250;2022-10-16T16:38:28;103.53;;;79.60;;
23506;SDS011;11930;53.076;18.250;2022-10-16T16:40:55;27.48;;;22.92;;
23506;SDS011;11930;53.076;18.250;2022-10-16T16:43:22;23.35;;;18.45;;
23506;SDS011;11930;53.076;18.250;2022-10-16T16:45:53;21.40;;;16.80;;
23506;SDS011;11930;53.076;18.250;2022-10-16T16:48:20;18.33;;;15.98;;
23506;SDS011;11930;53.076;18.250;2022-10-16T16:50:47;17.60;;;12.90;;
23506;SDS011;11930;53.076;18.250;2022-10-16T16:53:13;22.48;;;14.70;;
23506;SDS011;11930;53.076;18.250;2022-10-16T16:55:39;16.13;;;12.73;;
23506;SDS011;11930;53.076;18.250;2022-10-16T16:58:05;17.87;;;12.33;;
23506;SDS011;11930;53.076;18.250;2022-10-16T17:00:31;21.10;;;14.68;;
23506;SDS011;11930;53.076;18.250;2022-10-16T17:02:57;19.83;;;14.43;;
23506;SDS011;11930;53.076;18.250;2022-10-16T17:05:24;18.77;;;13.50;;
23506;SDS011;11930;53.076;18.250;2022-10-16T17:08:00;21.52;;;14.82;;
23506;SDS011;11930;53.076;18.250;2022-10-16T17:10:26;17.53;;;13.27;;
23506;SDS011;11930;53.076;18.250;2022-10-16T17:12:52;17.30;;;13.45;;
23506;SDS011;11930;53.076;18.250;2022-10-16T17:15:18;18.23;;;14.03;;
23506;SDS011;11930;53.076;18.250;2022-10-16T17:17:44;19.50;;;15.02;;
23506;SDS011;11930;53.076;18.250;2022-10-16T17:20:10;21.77;;;18.07;;